createdAt,value
2019-05-17T00:01:57.513Z,96232.49
2019-05-17T00:04:22.555Z,96235.33
2019-05-17T00:06:48.423Z,96235.63
2019-05-17T00:09:14.257Z,96227.79
2019-05-17T00:11:40.097Z,96224.38
2019-05-17T00:14:06.427Z,96222.53
2019-05-17T00:16:32.387Z,96229.72
2019-05-17T00:18:58.322Z,96217.62
2019-05-17T00:21:24.176Z,96225.70
2019-05-17T00:23:50.005Z,96220.44
2019-05-17T00:26:16.426Z,96214.92
2019-05-17T00:28:42.516Z,96204.95
2019-05-17T00:31:08.372Z,96204.95
2019-05-17T00:33:36.515Z,96198.50
2019-05-17T00:36:01.962Z,96196.80
2019-05-17T00:38:27.805Z,96192.39
2019-05-17T00:40:53.627Z,96190.61
2019-05-17T00:43:19.485Z,96189.76
2019-05-17T00:45:46.844Z,96186.83
2019-05-17T00:48:12.883Z,96185.74
2019-05-17T00:50:38.837Z,96183.97
2019-05-17T00:53:06.941Z,96182.19
2019-05-17T00:55:32.519Z,96177.23
2019-05-17T00:57:58.351Z,96177.23
2019-05-17T01:00:24.243Z,96171.21
2019-05-17T01:02:50.053Z,96175.92
2019-05-17T01:05:17.093Z,96170.72
2019-05-17T01:07:43.377Z,96158.20
2019-05-17T01:10:09.640Z,96158.20
2019-05-17T01:12:36.555Z,96169.13
2019-05-17T01:15:07.456Z,96166.27
2019-05-17T01:17:33.378Z,96163.64
2019-05-17T01:19:59.228Z,96165.19
2019-05-17T01:22:26.260Z,96154.37
2019-05-17T01:24:52.237Z,96160.47
2019-05-17T01:27:18.144Z,96160.47
2019-05-17T01:29:43.993Z,96156.14
2019-05-17T01:32:09.834Z,96157.46
2019-05-17T01:34:37.582Z,96151.52
2019-05-17T01:37:03.742Z,96151.93
2019-05-17T01:39:29.597Z,96146.10
2019-05-17T01:41:57.345Z,96149.89
2019-05-17T01:44:23.319Z,96142.39
2019-05-17T01:46:49.171Z,96142.39
2019-05-17T01:49:16.505Z,96141.31
2019-05-17T01:51:42.655Z,96146.03
2019-05-17T01:54:08.504Z,96146.03
2019-05-17T01:56:36.798Z,96145.36
2019-05-17T01:59:02.383Z,96148.22
2019-05-17T02:01:28.236Z,96148.06
2019-05-17T02:03:54.075Z,96143.58
2019-05-17T02:06:19.916Z,96142.89
2019-05-17T02:08:47.574Z,96143.12
2019-05-17T02:11:14.016Z,96139.73
2019-05-17T02:13:39.846Z,96139.73
2019-05-17T02:16:07.165Z,96142.36
2019-05-17T02:18:33.234Z,96136.08
2019-05-17T02:20:59.080Z,96136.08
2019-05-17T02:23:27.033Z,96136.83
2019-05-17T02:25:52.805Z,96121.22
2019-05-17T02:28:18.732Z,96121.22
2019-05-17T02:30:44.671Z,96137.22
2019-05-17T02:33:12.636Z,96134.97
2019-05-17T02:35:38.690Z,96131.39
2019-05-17T02:38:04.532Z,96131.84
2019-05-17T02:40:33.500Z,96131.38
2019-05-17T02:42:58.127Z,96122.77
2019-05-17T02:45:24.080Z,96122.77
2019-05-17T02:47:49.927Z,96129.36
2019-05-17T02:50:16.986Z,96129.75
2019-05-17T02:52:43.934Z,96131.38
2019-05-17T02:55:12.783Z,96128.09
2019-05-17T02:57:37.961Z,96129.07
2019-05-17T03:00:05.040Z,96127.64
2019-05-17T03:02:33.858Z,96118.52
2019-05-17T03:04:58.618Z,96123.72
2019-05-17T03:07:24.474Z,96124.39
2019-05-17T03:09:53.204Z,96124.70
2019-05-17T03:12:18.083Z,96120.06
2019-05-17T03:14:43.912Z,96118.06
2019-05-17T03:17:09.763Z,96122.30
2019-05-17T03:19:35.589Z,96122.11
2019-05-17T03:22:07.249Z,96121.27
2019-05-17T03:24:29.221Z,96120.75
2019-05-17T03:26:55.062Z,96121.22
2019-05-17T03:29:22.644Z,96120.45
2019-05-17T03:31:57.984Z,96121.45
2019-05-17T03:34:25.807Z,96117.39
2019-05-17T03:36:47.720Z,96117.39
2019-05-17T03:39:13.659Z,96118.09
2019-05-17T03:41:42.625Z,96123.20
2019-05-17T03:44:07.219Z,96124.78
2019-05-17T03:46:33.512Z,96118.48
2019-05-17T03:48:59.500Z,96123.43
2019-05-17T03:51:25.454Z,96121.77
2019-05-17T03:53:53.077Z,96119.19
2019-05-17T03:56:22.189Z,96116.02
2019-05-17T03:58:46.826Z,96116.02
2019-05-17T04:01:14.065Z,96121.15
2019-05-17T04:03:43.401Z,96120.80
2019-05-17T04:06:08.125Z,96125.55
2019-05-17T04:08:33.949Z,96125.55
2019-05-17T04:11:16.307Z,96120.98
2019-05-17T04:13:27.571Z,96120.38
2019-05-17T04:15:53.455Z,96121.46
2019-05-17T04:18:19.344Z,96121.30
2019-05-17T04:20:45.331Z,96116.13
2019-05-17T04:23:12.760Z,96116.67
2019-05-17T04:25:39.100Z,96122.81
2019-05-17T04:28:05.017Z,96122.81
2019-05-17T04:30:32.674Z,96122.04
2019-05-17T04:32:58.946Z,96130.72
2019-05-17T04:35:24.885Z,96121.48
2019-05-17T04:37:53.166Z,96122.33
2019-05-17T04:40:18.506Z,96123.72
2019-05-17T04:42:44.685Z,96123.72
2019-05-17T04:45:12.754Z,96124.03
2019-05-17T04:47:38.584Z,96126.47
2019-05-17T04:50:04.725Z,96126.47
2019-05-17T04:52:33.627Z,96125.66
2019-05-17T04:54:58.397Z,96127.12
2019-05-17T04:57:24.257Z,96127.12
2019-05-17T04:59:52.336Z,96126.96
2019-05-17T05:02:17.906Z,96123.72
2019-05-17T05:04:44.331Z,96123.33
2019-05-17T05:07:10.204Z,96123.81
2019-05-17T05:09:36.490Z,96123.81
2019-05-17T05:12:05.820Z,96131.78
2019-05-17T05:14:32.743Z,96121.81
2019-05-17T05:16:57.844Z,96121.19
2019-05-17T05:19:23.680Z,96119.04
2019-05-17T05:21:51.899Z,96126.53
2019-05-17T05:24:17.295Z,96121.66
2019-05-17T05:26:43.159Z,96121.66
2019-05-17T05:29:08.992Z,96125.22
2019-05-17T05:31:34.880Z,96129.86
2019-05-17T05:34:01.835Z,96130.69
2019-05-17T05:36:27.957Z,96116.63
2019-05-17T05:38:53.829Z,96116.63
2019-05-17T05:41:19.659Z,96120.04
2019-05-17T05:43:45.526Z,96119.60
2019-05-17T05:46:11.741Z,96118.88
2019-05-17T05:48:37.768Z,96119.39
2019-05-17T05:51:05.341Z,96119.39
2019-05-17T05:53:32.532Z,96115.81
2019-05-17T05:55:58.552Z,96115.81
2019-05-17T05:58:24.471Z,96115.00
2019-05-17T06:00:52.927Z,96112.22
2019-05-17T06:03:18.218Z,96116.64
2019-05-17T06:05:44.166Z,96097.56
2019-05-17T06:08:12.335Z,96110.16
2019-05-17T06:10:39.491Z,96114.36
2019-05-17T06:13:05.678Z,96122.11
2019-05-17T06:15:32.046Z,96122.11
2019-05-17T06:17:58.106Z,96118.15
2019-05-17T06:20:24.055Z,96118.15
2019-05-17T06:22:51.810Z,96123.03
2019-05-17T06:25:17.673Z,96107.73
2019-05-17T06:27:43.510Z,96115.22
2019-05-17T06:30:12.283Z,96124.60
2019-05-17T06:32:37.914Z,96121.22
2019-05-17T06:35:04.181Z,96121.22
2019-05-17T06:37:31.774Z,96120.80
2019-05-17T06:39:57.829Z,96121.51
2019-05-17T06:42:37.359Z,96121.51
2019-05-17T06:44:52.338Z,96126.47
2019-05-17T06:47:18.298Z,96120.08
2019-05-17T06:49:44.135Z,96120.08
2019-05-17T06:52:11.637Z,96125.00
2019-05-17T06:54:37.643Z,96120.80
2019-05-17T06:57:03.524Z,96121.70
2019-05-17T06:59:29.324Z,96119.39
2019-05-17T07:01:55.199Z,96119.75
2019-05-17T07:04:21.037Z,96121.28
2019-05-17T07:06:49.558Z,96113.47
2019-05-17T07:09:15.563Z,96114.78
2019-05-17T07:11:41.413Z,96109.93
2019-05-17T07:14:09.265Z,96116.88
2019-05-17T07:16:35.018Z,96111.25
2019-05-17T07:19:00.838Z,96112.33
2019-05-17T07:21:26.799Z,96109.32
2019-05-17T07:23:52.619Z,96109.41
2019-05-17T07:26:19.730Z,96106.77
2019-05-17T07:28:45.772Z,96103.05
2019-05-17T07:31:11.595Z,96101.97
2019-05-17T07:33:39.705Z,96107.69
2019-05-17T07:36:05.215Z,96102.16
2019-05-17T07:38:31.074Z,96102.16
2019-05-17T07:40:59.366Z,96096.86
2019-05-17T07:43:24.748Z,96093.92
2019-05-17T07:45:50.591Z,96098.95
2019-05-17T07:48:16.447Z,96090.97
2019-05-17T07:50:42.883Z,96092.38
2019-05-17T07:53:10.424Z,96092.35
2019-05-17T07:55:36.499Z,96096.88
2019-05-17T07:58:02.472Z,96102.28
2019-05-17T08:00:30.498Z,96094.60
2019-05-17T08:02:56.066Z,96095.72
2019-05-17T08:05:21.913Z,96095.09
2019-05-17T08:07:49.857Z,96092.66
2019-05-17T08:10:15.834Z,96090.92
2019-05-17T08:12:41.690Z,96080.98
2019-05-17T08:15:10.448Z,96081.66
2019-05-17T08:17:35.915Z,96087.98
2019-05-17T08:20:03.696Z,96081.31
2019-05-17T08:22:29.534Z,96076.69
2019-05-17T08:24:55.389Z,96082.06
2019-05-17T08:27:21.235Z,96080.12
2019-05-17T08:29:47.068Z,96076.59
2019-05-17T08:32:12.908Z,96083.10
2019-05-17T08:34:40.121Z,96089.34
2019-05-17T08:37:06.115Z,96076.81
2019-05-17T08:39:31.972Z,96078.73
2019-05-17T08:41:57.810Z,96068.55
2019-05-17T08:44:23.667Z,96077.11
2019-05-17T08:46:50.086Z,96068.39
2019-05-17T08:49:16.057Z,96063.00
2019-05-17T08:51:41.993Z,96065.23
2019-05-17T08:54:10.149Z,96061.59
2019-05-17T08:56:35.603Z,96050.20
2019-05-17T08:59:02.292Z,96051.23
2019-05-17T09:01:30.201Z,96048.05
2019-05-17T09:03:55.876Z,96045.33
2019-05-17T09:06:21.733Z,96048.55
2019-05-17T09:08:49.817Z,96049.59
2019-05-17T09:11:15.349Z,96051.98
2019-05-17T09:13:54.352Z,96052.83
2019-05-17T09:16:10.704Z,96046.77
2019-05-17T09:18:36.716Z,96046.86
2019-05-17T09:21:02.660Z,96049.05
2019-05-17T09:23:30.466Z,96051.14
2019-05-17T09:25:56.284Z,96044.56
2019-05-17T09:28:22.151Z,96045.67
2019-05-17T09:30:50.526Z,96052.11
2019-05-17T09:33:15.777Z,96050.78
2019-05-17T09:35:41.645Z,96045.47
2019-05-17T09:38:09.853Z,96054.52
2019-05-17T09:40:36.512Z,96049.36
2019-05-17T09:43:02.352Z,96052.95
2019-05-17T09:45:30.602Z,96051.05
2019-05-17T09:47:56.155Z,96047.42
2019-05-17T09:50:22.116Z,96046.23
2019-05-17T09:52:49.478Z,96045.77
2019-05-17T09:55:15.536Z,96045.25
2019-05-17T09:57:41.383Z,96042.41
2019-05-17T10:00:09.897Z,96048.94
2019-05-17T10:02:36.107Z,96045.69
2019-05-17T10:05:04.654Z,96047.42
2019-05-17T10:07:30.503Z,96034.70
2019-05-17T10:09:56.352Z,96028.55
2019-05-17T10:12:22.358Z,96034.26
2019-05-17T10:14:49.830Z,96031.09
2019-05-17T10:17:15.939Z,96035.45
2019-05-17T10:19:41.892Z,96025.90
2019-05-17T10:22:10.175Z,96031.89
2019-05-17T10:24:38.958Z,96028.46
2019-05-17T10:27:03.401Z,96019.45
2019-05-17T10:29:29.959Z,96027.22
2019-05-17T10:31:55.963Z,96026.25
2019-05-17T10:34:21.831Z,96028.15
2019-05-17T10:36:47.689Z,96024.59
2019-05-17T10:39:13.546Z,96022.48
2019-05-17T10:41:40.587Z,96024.06
2019-05-17T10:44:06.833Z,96016.17
2019-05-17T10:46:32.693Z,96020.44
2019-05-17T10:48:58.574Z,96021.21
2019-05-17T10:51:24.410Z,96021.00
2019-05-17T10:53:51.329Z,96007.91
2019-05-17T10:56:19.543Z,96009.24
2019-05-17T10:58:45.178Z,96014.85
2019-05-17T11:01:11.132Z,96011.65
2019-05-17T11:03:39.578Z,96005.36
2019-05-17T11:06:04.949Z,96008.69
2019-05-17T11:08:30.900Z,96005.26
2019-05-17T11:10:56.790Z,96003.71
2019-05-17T11:13:22.661Z,96007.34
2019-05-17T11:15:48.622Z,96009.53
2019-05-17T11:18:14.583Z,96013.66
2019-05-17T11:20:40.425Z,96003.30
2019-05-17T11:23:06.405Z,96007.39
2019-05-17T11:25:32.314Z,95998.28
2019-05-17T11:27:58.323Z,96001.58
2019-05-17T11:30:24.169Z,95997.38
2019-05-17T11:32:50.106Z,95996.61
2019-05-17T11:35:16.135Z,95993.18
2019-05-17T11:37:42.210Z,95999.28
2019-05-17T11:40:08.565Z,95992.81
2019-05-17T11:42:34.430Z,95992.03
2019-05-17T11:45:00.372Z,95977.55
2019-05-17T11:47:26.212Z,95984.77
2019-05-17T11:49:52.154Z,95976.84
2019-05-17T11:52:18.107Z,95975.67
2019-05-17T11:54:44.034Z,95975.10
2019-05-17T11:57:12.307Z,95981.62
2019-05-17T11:59:37.660Z,95972.07
2019-05-17T12:02:03.614Z,95969.16
2019-05-17T12:04:29.493Z,95966.59
2019-05-17T12:06:55.496Z,95964.68
2019-05-17T12:09:36.210Z,95956.77
2019-05-17T12:11:49.203Z,95956.94
2019-05-17T12:14:15.168Z,95963.55
2019-05-17T12:16:41.202Z,95969.71
2019-05-17T12:19:07.194Z,95967.74
2019-05-17T12:21:33.122Z,95969.83
2019-05-17T12:23:59.098Z,95965.22
2019-05-17T12:26:25.371Z,95964.95
2019-05-17T12:28:51.239Z,95963.23
2019-05-17T12:31:17.425Z,95962.63
2019-05-17T12:33:43.408Z,95956.58
2019-05-17T12:36:09.291Z,95964.28
2019-05-17T12:38:35.186Z,95964.59
2019-05-17T12:41:01.121Z,95963.16
2019-05-17T12:43:27.016Z,95960.48
2019-05-17T12:46:00.742Z,95959.70
2019-05-17T12:48:20.670Z,95956.27
2019-05-17T12:50:46.523Z,95957.80
2019-05-17T12:53:12.375Z,95958.58
2019-05-17T12:55:38.226Z,95955.22
2019-05-17T12:58:04.174Z,95957.86
2019-05-17T13:00:30.165Z,95945.45
2019-05-17T13:02:56.015Z,95940.55
2019-05-17T13:05:21.900Z,95942.83
2019-05-17T13:07:47.745Z,95949.41
2019-05-17T13:10:13.876Z,95937.67
2019-05-17T13:12:40.003Z,95938.48
2019-05-17T13:15:06.489Z,95937.61
2019-05-17T13:17:32.426Z,95937.39
2019-05-17T13:19:58.298Z,95938.34
2019-05-17T13:22:24.197Z,95939.23
2019-05-17T13:24:50.074Z,95936.69
2019-05-17T13:27:16.132Z,95935.17
2019-05-17T13:29:42.106Z,95932.64
2019-05-17T13:32:08.192Z,95936.38
2019-05-17T13:34:34.097Z,95934.28
2019-05-17T13:37:00.019Z,95935.13
2019-05-17T13:39:25.872Z,95927.89
2019-05-17T13:41:51.751Z,95915.08
2019-05-17T13:44:17.588Z,95922.34
2019-05-17T13:46:43.592Z,95916.13
2019-05-17T13:49:09.473Z,95919.06
2019-05-17T13:51:35.451Z,95927.25
2019-05-17T13:54:01.403Z,95920.55
2019-05-17T13:56:27.387Z,95920.80
2019-05-17T13:58:53.392Z,95918.08
2019-05-17T14:01:19.340Z,95920.20
2019-05-17T14:03:45.175Z,95914.20
2019-05-17T14:06:11.045Z,95915.48
2019-05-17T14:08:36.909Z,95912.40
2019-05-17T14:11:02.931Z,95921.84
2019-05-17T14:13:28.887Z,95918.48
2019-05-17T14:15:54.745Z,95910.30
2019-05-17T14:18:20.661Z,95920.59
2019-05-17T14:20:46.540Z,95911.52
2019-05-17T14:23:12.408Z,95909.55
2019-05-17T14:25:38.695Z,95906.05
2019-05-17T14:28:04.909Z,95901.97
2019-05-17T14:30:30.765Z,95903.15
2019-05-17T14:32:56.650Z,95906.42
2019-05-17T14:35:22.504Z,95906.73
2019-05-17T14:37:48.383Z,95902.71
2019-05-17T14:40:14.522Z,95907.23
2019-05-17T14:42:40.803Z,95899.63
2019-05-17T14:45:06.758Z,95909.86
2019-05-17T14:47:32.713Z,95908.26
2019-05-17T14:50:00.510Z,95905.80
2019-05-17T14:52:26.570Z,95903.38
2019-05-17T14:54:52.547Z,95901.90
2019-05-17T14:57:18.389Z,95901.05
2019-05-17T14:59:44.249Z,95905.39
2019-05-17T15:02:10.127Z,95903.22
2019-05-17T15:04:35.991Z,95898.81
2019-05-17T15:07:01.883Z,95898.81
2019-05-17T15:09:28.138Z,95901.81
2019-05-17T15:11:54.501Z,95900.72
2019-05-17T15:16:49.845Z,95895.77
2019-05-17T15:19:15.784Z,95890.69
2019-05-17T15:21:41.745Z,95891.33
2019-05-17T15:24:07.602Z,95886.60
2019-05-17T15:26:35.693Z,95880.73
2019-05-17T15:29:01.422Z,95889.68
2019-05-17T15:31:27.396Z,95888.78
2019-05-17T15:33:53.357Z,95892.28
2019-05-17T15:36:19.328Z,95879.70
2019-05-17T15:38:45.179Z,95880.64
2019-05-17T15:41:11.043Z,95873.14
2019-05-17T15:43:36.989Z,95876.98
2019-05-17T15:46:03.032Z,95881.62
2019-05-17T15:48:28.889Z,95871.28
2019-05-17T15:50:54.840Z,95875.02
2019-05-17T15:53:20.807Z,95872.27
2019-05-17T15:55:46.850Z,95870.02
2019-05-17T15:58:12.820Z,95869.30
2019-05-17T16:00:38.766Z,95862.02
2019-05-17T16:03:04.743Z,95862.48
2019-05-17T16:05:30.677Z,95860.31
2019-05-17T16:07:56.568Z,95858.53
2019-05-17T16:10:22.467Z,95842.64
2019-05-17T16:13:01.925Z,95849.23
2019-05-17T16:15:16.210Z,95839.48
2019-05-17T16:17:42.276Z,95836.03
2019-05-17T16:20:08.395Z,95834.77
2019-05-17T16:22:34.413Z,95835.16
2019-05-17T16:25:01.420Z,95836.50
2019-05-17T16:27:27.353Z,95829.05
2019-05-17T16:29:53.336Z,95822.95
2019-05-17T16:32:19.390Z,95816.83
2019-05-17T16:34:45.439Z,95815.86
2019-05-17T16:37:11.407Z,95820.83
2019-05-17T16:39:37.386Z,95818.55
2019-05-17T16:42:03.365Z,95820.45
2019-05-17T16:44:29.312Z,95817.95
2019-05-17T16:46:55.177Z,95818.73
2019-05-17T16:49:21.167Z,95820.05
2019-05-17T16:51:47.123Z,95811.66
2019-05-17T16:54:13.092Z,95812.97
2019-05-17T16:56:39.111Z,95814.48
2019-05-17T16:59:04.947Z,95816.52
2019-05-17T17:01:31.016Z,95817.16
2019-05-17T17:03:57.038Z,95820.14
2019-05-17T17:06:22.877Z,95816.30
2019-05-17T17:08:48.768Z,95818.81
2019-05-17T17:11:14.784Z,95816.25
2019-05-17T17:13:40.724Z,95815.69
2019-05-17T17:16:06.678Z,95816.63
2019-05-17T17:18:32.773Z,95817.63
2019-05-17T17:20:58.700Z,95812.64
2019-05-17T17:23:24.703Z,95820.10
2019-05-17T17:25:50.588Z,95816.95
2019-05-17T17:28:16.534Z,95815.63
2019-05-17T17:30:42.373Z,95811.25
2019-05-17T17:33:08.323Z,95807.81
2019-05-17T17:35:34.277Z,95808.20
2019-05-17T17:38:00.386Z,95810.28
2019-05-17T17:40:26.567Z,95809.72
2019-05-17T17:42:52.433Z,95815.17
2019-05-17T17:45:20.506Z,95817.39
2019-05-17T17:47:46.603Z,95817.58
2019-05-17T17:50:12.897Z,95811.36
2019-05-17T17:52:38.942Z,95815.98
2019-05-17T17:55:05.027Z,95813.08
2019-05-17T17:57:30.944Z,95812.17
2019-05-17T17:59:57.063Z,95808.37
2019-05-17T18:02:23.845Z,95811.04
2019-05-17T18:04:49.858Z,95820.88
2019-05-17T18:07:15.718Z,95811.86
2019-05-17T18:09:41.635Z,95772.44
2019-05-17T18:12:07.649Z,95812.75
2019-05-17T18:14:33.668Z,95816.84
2019-05-17T18:16:59.645Z,95819.20
2019-05-17T18:19:25.546Z,95818.95
2019-05-17T18:21:51.410Z,95816.34
2019-05-17T18:24:17.376Z,95816.63
2019-05-17T18:26:43.234Z,95816.82
2019-05-17T18:29:09.216Z,95822.64
2019-05-17T18:31:35.200Z,95824.34
2019-05-17T18:34:01.172Z,95824.80
2019-05-17T18:36:27.240Z,95825.80
2019-05-17T18:38:53.403Z,95823.62
2019-05-17T18:41:19.379Z,95822.58
2019-05-17T18:43:45.244Z,95828.88
2019-05-17T18:46:11.286Z,95831.79
2019-05-17T18:48:37.263Z,95829.19
2019-05-17T18:51:03.124Z,95826.97
2019-05-17T18:53:28.984Z,95825.12
2019-05-17T18:55:54.843Z,95835.89
2019-05-17T18:58:20.710Z,95829.34
2019-05-17T19:00:46.567Z,95830.89
2019-05-17T19:03:12.641Z,95836.95
2019-05-17T19:05:38.611Z,95841.75
2019-05-17T19:08:04.571Z,95847.13
2019-05-17T19:10:30.457Z,95842.27
2019-05-17T19:12:56.438Z,95843.20
2019-05-17T19:15:22.507Z,95837.94
2019-05-17T19:17:48.451Z,95842.64
2019-05-17T19:20:14.633Z,95842.72
2019-05-17T19:22:41.240Z,95843.08
2019-05-17T19:25:07.947Z,95845.69
2019-05-17T19:27:34.185Z,95843.28
2019-05-17T19:30:00.066Z,95844.65
2019-05-17T19:32:25.932Z,95845.05
2019-05-17T19:34:51.807Z,95850.52
2019-05-17T19:39:58.094Z,95843.88
2019-05-17T19:42:24.003Z,95845.58
2019-05-17T19:44:58.671Z,95842.88
2019-05-17T19:47:17.743Z,95843.95
2019-05-17T19:49:43.623Z,95840.83
2019-05-17T19:52:09.493Z,95837.41
2019-05-17T19:54:35.385Z,95842.10
2019-05-17T19:57:01.262Z,95840.84
2019-05-17T19:59:27.250Z,95840.84
2019-05-17T20:01:53.292Z,95832.27
2019-05-17T20:04:19.179Z,95845.80
2019-05-17T20:06:45.005Z,95838.14
2019-05-17T20:09:12.783Z,95843.48
2019-05-17T20:11:38.625Z,95839.25
2019-05-17T20:14:04.613Z,95841.34
2019-05-17T20:16:30.562Z,95838.08
2019-05-17T20:18:56.516Z,95841.31
2019-05-17T20:21:22.679Z,95842.93
2019-05-17T20:23:48.554Z,95846.70
2019-05-17T20:26:14.409Z,95844.95
2019-05-17T20:28:40.374Z,95840.83
2019-05-17T20:31:06.449Z,95845.03
2019-05-17T20:33:32.389Z,95844.80
2019-05-17T20:35:58.244Z,95841.59
2019-05-17T20:38:24.173Z,95841.74
2019-05-17T20:40:50.127Z,95843.19
2019-05-17T20:43:16.070Z,95834.89
2019-05-17T20:45:42.028Z,95839.64
2019-05-17T20:48:07.851Z,95839.89
2019-05-17T20:50:33.914Z,95841.78
2019-05-17T20:52:59.899Z,95844.04
2019-05-17T20:55:27.359Z,95845.92
2019-05-17T20:57:53.415Z,95846.03
2019-05-17T21:00:19.451Z,95843.61
2019-05-17T21:02:45.386Z,95845.48
2019-05-17T21:05:14.649Z,95847.44
2019-05-17T21:07:40.586Z,95852.23
2019-05-17T21:10:06.759Z,95851.12
2019-05-17T21:12:32.599Z,95846.33
2019-05-17T21:14:58.551Z,95853.02
2019-05-17T21:17:24.415Z,95852.51
2019-05-17T21:19:50.266Z,95847.63
2019-05-17T21:22:16.117Z,95845.08
2019-05-17T21:24:42.112Z,95842.86
2019-05-17T21:27:07.961Z,95835.42
2019-05-17T21:29:33.791Z,95834.05
2019-05-17T21:31:59.766Z,95839.00
2019-05-17T21:34:25.609Z,95841.64
2019-05-17T21:36:51.668Z,95840.56
2019-05-17T21:39:17.632Z,95832.13
2019-05-17T21:41:43.588Z,95825.09
2019-05-17T21:44:09.542Z,95832.89
2019-05-17T21:46:35.423Z,95835.84
2019-05-17T21:49:01.354Z,95834.52
2019-05-17T21:51:27.327Z,95834.30
2019-05-17T21:53:53.187Z,95833.44
2019-05-17T21:56:19.060Z,95830.95
2019-05-17T21:58:44.905Z,95826.55
2019-05-17T22:01:15.214Z,95833.78
2019-05-17T22:03:41.268Z,95818.48
2019-05-17T22:06:07.620Z,95818.48
2019-05-17T22:08:33.592Z,95823.31
2019-05-17T22:10:59.665Z,95823.31
2019-05-17T22:13:25.717Z,95827.02
2019-05-17T22:15:51.665Z,95809.21
2019-05-17T22:18:18.752Z,95809.21
2019-05-17T22:20:44.659Z,95814.80
2019-05-17T22:23:10.638Z,95812.92
2019-05-17T22:25:36.568Z,95820.08
2019-05-17T22:28:02.531Z,95818.77
2019-05-17T22:30:28.466Z,95812.49
2019-05-17T22:32:54.413Z,95812.50
2019-05-17T22:35:20.350Z,95816.70
2019-05-17T22:37:46.307Z,95817.47
2019-05-17T22:40:12.626Z,95811.42
2019-05-17T22:42:39.508Z,95812.16
2019-05-17T22:45:05.861Z,95817.74
2019-05-17T22:47:31.708Z,95816.52
2019-05-17T22:49:57.666Z,95814.98
2019-05-17T22:52:23.686Z,95814.00
2019-05-17T22:54:49.556Z,95819.83
2019-05-17T22:57:15.418Z,95819.83
2019-05-17T22:59:43.171Z,95815.91
2019-05-17T23:02:09.043Z,95803.72
2019-05-17T23:04:35.008Z,95803.72
2019-05-17T23:07:00.953Z,95817.58
2019-05-17T23:09:26.914Z,95808.47
2019-05-17T23:11:52.754Z,95808.78
2019-05-17T23:14:18.615Z,95805.61
2019-05-17T23:16:51.538Z,95800.09
2019-05-17T23:19:12.301Z,95803.61
2019-05-17T23:21:38.319Z,95800.11
2019-05-17T23:24:04.678Z,95795.27
2019-05-17T23:26:30.824Z,95776.81
2019-05-17T23:28:56.674Z,95796.23
2019-05-17T23:31:22.525Z,95796.23
2019-05-17T23:33:48.457Z,95795.17
2019-05-17T23:36:14.404Z,95798.88
2019-05-17T23:38:40.338Z,95800.55
2019-05-17T23:41:06.286Z,95797.89
2019-05-17T23:43:32.235Z,95799.38
2019-05-17T23:45:58.092Z,95798.49
2019-05-17T23:48:23.942Z,95805.41
2019-05-17T23:50:49.781Z,95796.44
2019-05-17T23:53:15.714Z,95797.53
2019-05-17T23:55:41.775Z,95797.14
2019-05-17T23:58:07.737Z,95796.08
